• Join FlightAware (Why Join?)
  • Login
  • US Flag 
10:29AM EST


 

Airport Tracker/Info


-or-


 

Live Flight TrackerFlight Track Log ✈ DAL461 ✈ 23-Apr-2013 ✈ KATL - MGGT / GUA

Flight Track Log - Related Links

Times and Time Zones

All times are in EDT time to prevent confusion due to time zone crossing. See the DAL461 flight status page for this flight to view local times or setup timezone preferences in your user account.

Time Position Orientation Groundspeed Altitude Reporting Facility
EDT Latitude Longitude Course Direction KTS MPH feet Rate Location/Type
10:36AM 33.6500 -84.3667 234° Southwest 194 223 3,300  Level Atlanta TRACON
10:37AM 33.6833 -84.3000 59° Northeast 274 315 5,900 3,000 Climbing Atlanta TRACON
10:38AM 33.8001 -84.4081 270° West  Level FlightAware Approximate
10:38AM 33.7500 -84.2833 12° North 290 334 9,400  Level Atlanta TRACON
10:39AM 33.8000 -84.5605 270° West  Level FlightAware Approximate
10:40AM 33.7303 -84.6864 234° Southwest  Level FlightAware Approximate
10:40AM 33.8061 -84.4439 293° West 309 356 12,000  Level Atlanta Center
10:41AM 33.6549 -84.8087 234° Southwest  Level FlightAware Approximate
10:41AM 33.7556 -84.5586 242° Southwest 344 396 14,300  Level Atlanta Center
10:42AM 33.7092 -84.6756 245° Southwest 374 430 16,900 2,400 Climbing Atlanta Center
10:43AM 33.6542 -84.8050 243° Southwest 402 463 19,100 2,760 Climbing Atlanta Center
10:44AM 33.5989 -84.9292 242° Southwest 429 494 22,500 1,920 Climbing Atlanta Center
10:45AM 33.5458 -85.0533 243° Southwest 430 495 23,000 720 Climbing Atlanta Center
10:46AM 33.4969 -85.1672 243° Southwest 430 495 24,000 1,320 Climbing Atlanta Center
10:47AM 33.4558 -85.3061 251° West 435 501 25,700 1,800 Climbing Atlanta Center
10:48AM 33.4292 -85.4475 257° West 440 506 27,600 2,040 Climbing Atlanta Center
10:49AM 33.3714 -85.5786 242° Southwest 447 514 29,800 1,860 Climbing Atlanta Center
10:50AM 33.2761 -85.6736 220° Southwest 442 509 31,400 1,920 Climbing Atlanta Center
10:51AM 33.1789 -85.7664 219° Southwest 437 503 33,700 1,980 Climbing Atlanta Center
10:52AM 33.0897 -85.8686 224° Southwest 442 509 35,400 1,140 Climbing Atlanta Center
10:53AM 32.9900 -85.9756 222° Southwest 442 509 36,000 300 Climbing Atlanta Center
10:54AM 32.8986 -86.0725 222° Southwest 447 514 36,000  Level Atlanta Center
10:55AM 32.8072 -86.1742 223° Southwest 447 514 36,000  Level Atlanta Center
10:56AM 32.7178 -86.2733 223° Southwest 447 514 36,000  Level Atlanta Center
10:57AM 32.6242 -86.3769 223° Southwest 447 514 36,000  Level Atlanta Center
10:58AM 32.5347 -86.4706 221° Southwest 447 514 36,000  Level Atlanta Center
10:59AM 32.4556 -86.5619 224° Southwest 447 514 36,000  Level Atlanta Center
11:00AM 32.3658 -86.6578 222° Southwest 442 509 36,000  Level Atlanta Center
11:01AM 32.2633 -86.7628 221° Southwest 447 514 36,000  Level Atlanta Center
11:02AM 32.1736 -86.8558 221° Southwest 447 514 36,000  Level Atlanta Center
11:03AM 32.0881 -86.9486 223° Southwest 442 509 36,000  Level Atlanta Center
11:04AM 31.9981 -87.0414 221° Southwest 436 502 36,000  Level Atlanta Center
11:05AM 31.9061 -87.1361 221° Southwest 436 502 36,000  Level Atlanta Center
11:06AM 31.8181 -87.2333 223° Southwest 436 502 36,000  Level Atlanta Center
11:08AM 31.6522 -87.4028 221° Southwest 432 497 36,000  Level Houston Center
11:09AM 31.5625 -87.4958 221° Southwest 432 497 36,000  Level Houston Center
11:10AM 31.4733 -87.5881 221° Southwest 428 493 36,000  Level Houston Center
11:11AM 31.3833 -87.6814 222° Southwest 430 495 36,000  Level Houston Center
11:12AM 31.2944 -87.7750 222° Southwest 429 494 36,000  Level Houston Center
11:13AM 31.2044 -87.8678 221° Southwest 431 496 36,000  Level Houston Center
11:14AM 31.0958 -87.9797 221° Southwest 431 496 36,000  Level Houston Center
11:15AM 31.0028 -88.0719 220° Southwest 432 497 36,000  Level Houston Center
11:16AM 30.9078 -88.1692 221° Southwest 439 505 36,000  Level Houston Center
11:17AM 30.8142 -88.2653 221° Southwest 442 509 36,000  Level Houston Center
11:18AM 30.7244 -88.3589 222° Southwest 435 501 36,000  Level Houston Center
11:19AM 30.6375 -88.4569 224° Southwest 435 501 36,000  Level Houston Center
11:20AM 30.5514 -88.5564 225° Southwest 436 502 36,000  Level Houston Center
11:22AM 30.4647 -88.6544 224° Southwest 434 499 36,000  Level Houston Center
11:23AM 30.3614 -88.7725 225° Southwest 435 501 36,000  Level Houston Center
11:24AM 30.2744 -88.8700 224° Southwest 436 502 36,000  Level Houston Center
11:25AM 30.1875 -88.9686 224° Southwest 437 503 36,000  Level Houston Center
11:26AM 30.1017 -89.0664 225° Southwest 434 499 36,000  Level Houston Center
11:27AM 30.0156 -89.1631 224° Southwest 434 499 36,000  Level Houston Center
11:28AM 29.9133 -89.2806 225° Southwest 433 498 36,000  Level Houston Center
11:29AM 29.8256 -89.3742 223° Southwest 431 496 36,000  Level Houston Center
11:30AM 29.7411 -89.4692 224° Southwest 429 494 36,000  Level Houston Center
11:31AM 29.6558 -89.5661 225° Southwest 429 494 36,000  Level Houston Center
11:32AM 29.5722 -89.6631 225° Southwest 428 493 36,000 240 Level Houston Center
11:33AM 29.4867 -89.7575 224° Southwest 426 490 36,600 480 Climbing Houston Center
11:34AM 29.3869 -89.8681 224° Southwest 418 481 37,000 180 Climbing Houston Center
11:35AM 29.3044 -89.9592 224° Southwest 414 476 37,000  Level Houston Center
11:36AM 29.2206 -90.0528 224° Southwest 418 481 37,000  Level Houston Center
11:37AM 29.1100 -90.1025 201° Southwest 444 511 37,000  Level Houston Center
11:38AM 28.9744 -90.0933 177° South 481 554 37,000  Level Houston Center
11:39AM 28.8394 -90.0847 177° South 485 558 37,000  Level Houston Center
11:40AM 28.6794 -90.0764 177° South 482 555 37,000  Level Houston Center
11:41AM 28.5439 -90.0692 177° South 484 557 37,000  Level Houston Center
11:42AM 28.4100 -90.0622 177° South 483 556 37,000  Level Houston Center
11:43AM 28.2756 -90.0542 177° South 484 557 37,000  Level Houston Center
11:44AM 28.1397 -90.0411 175° South 486 559 37,000  Level Houston Center
11:46AM 27.9911 -90.0313 177° South  Level FlightAware Approximate
11:53AM 27.1476 -89.9800 177° South  Level FlightAware Approximate
11:54AM 27.0271 -89.9729 177° South  Level FlightAware Approximate
11:55AM 26.9066 -89.9658 177° South  Level FlightAware Approximate
11:56AM 26.7861 -89.9588 177° South  Level FlightAware Approximate
11:57AM 26.6656 -89.9517 177° South  Level FlightAware Approximate
11:58AM 26.5451 -89.9447 177° South  Level FlightAware Approximate
11:59AM 26.4246 -89.9377 177° South  Level FlightAware Approximate
12:00PM 26.3041 -89.9301 176° South  Level FlightAware Approximate
12:01PM 26.1836 -89.9214 176° South  Level FlightAware Approximate
12:02PM 26.0631 -89.9167 180° South  Level FlightAware Approximate
12:03PM 25.9424 -89.9167 180° South  Level FlightAware Approximate
12:04PM 25.8218 -89.9129 177° South  Level FlightAware Approximate
12:05PM 25.7013 -89.9056 177° South  Level FlightAware Approximate
12:06PM 25.5808 -89.8983 177° South  Level FlightAware Approximate
12:07PM 25.4603 -89.8910 177° South  Level FlightAware Approximate
12:08PM 25.3398 -89.8837 177° South  Level FlightAware Approximate
12:09PM 25.2193 -89.8764 177° South  Level FlightAware Approximate
12:10PM 25.0988 -89.8692 177° South  Level FlightAware Approximate
12:11PM 24.9783 -89.8619 177° South  Level FlightAware Approximate
12:12PM 24.8578 -89.8547 177° South  Level FlightAware Approximate
12:13PM 24.7373 -89.8475 177° South  Level FlightAware Approximate
12:14PM 24.6168 -89.8403 177° South  Level FlightAware Approximate
12:15PM 24.4963 -89.8333 180° South  Level FlightAware Approximate
12:16PM 24.3756 -89.8333 180° South  Level FlightAware Approximate
12:17PM 24.2550 -89.8333 180° South  Level FlightAware Approximate
12:18PM 24.1343 -89.8333 180° South  Level FlightAware Approximate
12:19PM 24.0136 -89.8333 180° South  Level FlightAware Approximate
12:20PM 23.8929 -89.8333 180° South  Level FlightAware Approximate
12:21PM 23.7722 -89.8333 180° South  Level FlightAware Approximate
12:22PM 23.6516 -89.8333 180° South  Level FlightAware Approximate
12:23PM 23.5309 -89.8333 180° South  Level FlightAware Approximate
12:24PM 23.4102 -89.8333 180° South  Level FlightAware Approximate
12:25PM 23.2895 -89.8333 180° South  Level FlightAware Approximate
12:26PM 23.1688 -89.8333 180° South  Level FlightAware Approximate
12:27PM 23.0482 -89.8333 180° South  Level FlightAware Approximate
12:28PM 22.9275 -89.8334 181° South  Level FlightAware Approximate
12:29PM 22.8068 -89.8356 181° South  Level FlightAware Approximate
12:30PM 22.6862 -89.8377 181° South  Level FlightAware Approximate
12:31PM 22.5655 -89.8398 181° South  Level FlightAware Approximate
12:32PM 22.4449 -89.8419 181° South  Level FlightAware Approximate
12:33PM 22.3242 -89.8440 181° South  Level FlightAware Approximate
12:34PM 22.2035 -89.8462 181° South  Level FlightAware Approximate
12:35PM 22.0829 -89.8483 181° South  Level FlightAware Approximate
12:36PM 21.9622 -89.8500 180° South  Level FlightAware Approximate
12:37PM 21.8415 -89.8500 180° South  Level FlightAware Approximate
12:38PM 21.7208 -89.8500 180° South  Level FlightAware Approximate
12:39PM 21.6002 -89.8500 180° South  Level FlightAware Approximate
12:40PM 21.4795 -89.8500 180° South  Level FlightAware Approximate
12:41PM 21.3588 -89.8500 180° South  Level FlightAware Approximate
12:42PM 21.2381 -89.8500 180° South  Level FlightAware Approximate
12:43PM 21.1175 -89.8500 180° South  Level FlightAware Approximate
12:44PM 20.9968 -89.8500 180° South  Level FlightAware Approximate
12:45PM 20.8761 -89.8500 180° South  Level FlightAware Approximate
12:46PM 20.7554 -89.8500 180° South  Level FlightAware Approximate
12:47PM 20.6347 -89.8500 180° South  Level FlightAware Approximate
12:48PM 20.5140 -89.8500 180° South  Level FlightAware Approximate
12:49PM 20.3934 -89.8500 180° South  Level FlightAware Approximate
12:50PM 20.2727 -89.8500 180° South  Level FlightAware Approximate
12:51PM 20.1520 -89.8500 180° South  Level FlightAware Approximate
12:52PM 20.0313 -89.8500 180° South  Level FlightAware Approximate
12:53PM 19.9107 -89.8500 180° South  Level FlightAware Approximate
12:54PM 19.7900 -89.8500 180° South  Level FlightAware Approximate
12:55PM 19.6693 -89.8500 180° South  Level FlightAware Approximate
12:56PM 19.5486 -89.8500 180° South  Level FlightAware Approximate
12:57PM 19.4280 -89.8508 188° South  Level FlightAware Approximate
12:58PM 19.3084 -89.8680 188° South  Level FlightAware Approximate
12:59PM 19.1888 -89.8852 188° South  Level FlightAware Approximate
01:00PM 19.0693 -89.9024 188° South  Level FlightAware Approximate
01:01PM 18.9497 -89.9196 188° South  Level FlightAware Approximate
01:02PM 18.8301 -89.9367 188° South  Level FlightAware Approximate
01:03PM 18.7105 -89.9538 188° South  Level FlightAware Approximate
01:04PM 18.5909 -89.9709 188° South  Level FlightAware Approximate
01:05PM 18.4713 -89.9880 188° South  Level FlightAware Approximate
01:06PM 18.3517 -90.0050 188° South  Level FlightAware Approximate
01:07PM 18.2321 -90.0220 188° South  Level FlightAware Approximate
01:08PM 18.1126 -90.0390 188° South  Level FlightAware Approximate
01:09PM 17.9930 -90.0560 188° South  Level FlightAware Approximate
01:10PM 17.8734 -90.0730 188° South  Level FlightAware Approximate
01:11PM 17.7538 -90.0902 188° South  Level FlightAware Approximate
01:12PM 17.6343 -90.1081 188° South  Level FlightAware Approximate
01:13PM 17.5149 -90.1259 188° South  Level FlightAware Approximate
01:14PM 17.3954 -90.1437 188° South  Level FlightAware Approximate
01:15PM 17.2759 -90.1615 188° South  Level FlightAware Approximate
01:16PM 17.1564 -90.1793 188° South  Level FlightAware Approximate
01:17PM 17.0369 -90.1970 188° South  Level FlightAware Approximate
01:18PM 16.9169 -90.2091 185° South  Level FlightAware Approximate
01:19PM 16.7967 -90.2210 186° South  Level FlightAware Approximate
01:20PM 16.6768 -90.2351 186° South  Level FlightAware Approximate
01:21PM 16.5569 -90.2492 186° South  Level FlightAware Approximate
01:22PM 16.4381 -90.2667 180° South  Level FlightAware Approximate
01:23PM 16.3189 -90.2839 190° South  Level FlightAware Approximate
01:24PM 16.1999 -90.3049 190° South  Level FlightAware Approximate
01:25PM 16.0805 -90.3229 186° South  Level FlightAware Approximate
01:26PM 15.9606 -90.3370 186° South  Level FlightAware Approximate
01:27PM 15.8407 -90.3512 187° South  Level FlightAware Approximate
01:28PM 15.7210 -90.3672 187° South  Level FlightAware Approximate
01:29PM 15.6013 -90.3832 187° South  Level FlightAware Approximate
01:30PM 15.4816 -90.3992 187° South  Level FlightAware Approximate
01:31PM 15.3619 -90.4151 187° South  Level FlightAware Approximate
01:32PM 15.2418 -90.4275 186° South  Level FlightAware Approximate
01:33PM 15.1221 -90.4428 188° South  Level FlightAware Approximate
01:34PM 15.0027 -90.4611 188° South  Level FlightAware Approximate
01:35PM 14.8828 -90.4751 186° South  Level FlightAware Approximate
01:36PM 14.7632 -90.4907 191° South  Level FlightAware Approximate
01:37PM 14.6447 -90.5144 191° South  Level FlightAware Approximate